Time;durP1;ratioP1;P1;durP2;ratioP2;P2;SDS_P1;SDS_P2;PMS_P1;PMS_P2;Temp;Humidity;BMP_temperature;BMP_pressure;BME280_temperature;BME280_humidity;BME280_pressure;Samples;Min_cycle;Max_cycle;Signal;HPM_P1;HPM_P2
2022/12/08 00:01:38;;;;;;;0.60;0.60;;;2.90;99.90;;;;;;5018110;27;20047;-82
2022/12/08 00:04:05;;;;;;;0.70;0.70;;;3.00;99.90;;;;;;5016085;27;20047;-82
2022/12/08 00:09:28;;;;;;;0.80;0.80;;;3.00;99.90;;;;;;5020115;27;21165;-83
2022/12/08 00:12:06;;;;;;;0.70;0.70;;;3.00;99.90;;;;;;5026824;27;20511;-82
2022/12/08 00:14:36;;;;;;;0.70;0.70;;;3.00;99.90;;;;;;5018130;27;20043;-83
2022/12/08 00:17:02;;;;;;;0.70;0.70;;;3.20;99.90;;;;;;5027271;27;20103;-84
2022/12/08 00:19:29;;;;;;;0.60;0.60;;;3.10;99.90;;;;;;5020088;27;20054;-83
2022/12/08 00:21:55;;;;;;;0.70;0.70;;;3.20;99.90;;;;;;5039817;27;20122;-82
2022/12/08 00:24:24;;;;;;;0.70;0.70;;;3.20;99.90;;;;;;5008622;27;20788;-83
2022/12/08 00:26:50;;;;;;;0.60;0.60;;;3.20;99.90;;;;;;5017053;27;20047;-81
2022/12/08 00:29:16;;;;;;;0.70;0.70;;;3.20;99.90;;;;;;5016323;27;20051;-83
2022/12/08 00:31:42;;;;;;;0.68;0.68;;;3.20;99.90;;;;;;5022696;27;20043;-83
2022/12/08 00:34:08;;;;;;;0.70;0.70;;;3.10;99.90;;;;;;5027741;27;20274;-83
2022/12/08 00:36:34;;;;;;;0.70;0.70;;;3.20;99.90;;;;;;5011426;27;20051;-83
2022/12/08 00:39:00;;;;;;;0.63;0.63;;;3.10;99.90;;;;;;5024438;27;20570;-82
2022/12/08 00:44:14;;;;;;;0.60;0.60;;;3.00;99.90;;;;;;5027559;27;20263;-81
2022/12/08 00:46:41;;;;;;;0.70;0.70;;;3.00;99.90;;;;;;5021244;27;20817;-81
2022/12/08 00:49:10;;;;;;;0.68;0.68;;;3.00;99.90;;;;;;5021045;27;20057;-83
2022/12/08 00:51:36;;;;;;;0.70;0.70;;;2.90;99.90;;;;;;5018898;28;20042;-81
2022/12/08 00:54:03;;;;;;;0.70;0.70;;;2.80;99.90;;;;;;5018443;28;20053;-82
2022/12/08 00:56:29;;;;;;;0.70;0.70;;;2.80;99.90;;;;;;5026934;28;20172;-82
2022/12/08 00:58:55;;;;;;;0.70;0.70;;;2.80;99.90;;;;;;5032449;28;20080;-82
2022/12/08 01:01:20;;;;;;;0.70;0.70;;;2.70;99.90;;;;;;5020963;28;20701;-82
2022/12/08 01:03:46;;;;;;;0.70;0.70;;;2.80;99.90;;;;;;5002218;28;20550;-84
2022/12/08 01:06:12;;;;;;;0.60;0.60;;;2.80;99.90;;;;;;5019136;28;20051;-82
2022/12/08 01:08:39;;;;;;;0.70;0.70;;;2.80;99.90;;;;;;5027196;28;20055;-82
2022/12/08 01:11:17;;;;;;;0.68;0.68;;;2.60;99.90;;;;;;5026397;28;20046;-81
2022/12/08 01:13:44;;;;;;;0.68;0.68;;;2.70;99.90;;;;;;5016631;28;20593;-83
2022/12/08 01:16:25;;;;;;;0.60;0.60;;;2.70;99.90;;;;;;5016632;28;20756;-82
2022/12/08 01:18:51;;;;;;;0.70;0.70;;;2.70;99.90;;;;;;5020116;28;20051;-81
2022/12/08 01:21:17;;;;;;;0.70;0.70;;;2.60;99.90;;;;;;5039791;28;20151;-81
2022/12/08 01:23:43;;;;;;;0.70;0.70;;;2.70;99.90;;;;;;5021149;28;20087;-84
2022/12/08 01:26:12;;;;;;;0.70;0.70;;;2.70;99.90;;;;;;5039934;28;20055;-82
2022/12/08 01:28:38;;;;;;;0.70;0.70;;;2.80;99.90;;;;;;5017945;28;20046;-82
2022/12/08 01:31:09;;;;;;;0.70;0.70;;;2.70;99.90;;;;;;4999666;28;20362;-82
2022/12/08 01:33:35;;;;;;;0.70;0.70;;;2.80;99.90;;;;;;5023052;28;20062;-83
2022/12/08 01:36:04;;;;;;;0.70;0.70;;;2.80;99.90;;;;;;4987170;28;20281;-82
2022/12/08 01:38:33;;;;;;;0.70;0.70;;;2.70;99.90;;;;;;4997299;28;20145;-81
2022/12/08 01:40:59;;;;;;;0.60;0.60;;;2.70;99.90;;;;;;4998499;28;20056;-80
2022/12/08 01:43:44;;;;;;;0.73;0.73;;;2.60;99.90;;;;;;4995092;28;20478;-81
2022/12/08 01:46:10;;;;;;;0.75;0.75;;;2.60;99.90;;;;;;4992760;28;20138;-82
2022/12/08 01:48:35;;;;;;;0.60;0.60;;;2.60;99.90;;;;;;4989779;28;20062;-81
2022/12/08 01:51:01;;;;;;;0.70;0.70;;;2.70;99.90;;;;;;4982197;28;20060;-81
2022/12/08 01:53:34;;;;;;;0.70;0.70;;;2.90;99.90;;;;;;4997102;28;20127;-83
2022/12/08 01:56:11;;;;;;;0.70;0.70;;;3.00;99.90;;;;;;4983403;28;20255;-82
2022/12/08 01:58:41;;;;;;;0.70;0.70;;;3.00;99.90;;;;;;5000243;28;20047;-81
2022/12/08 02:01:08;;;;;;;0.60;0.60;;;3.20;99.90;;;;;;5003082;28;20062;-81
2022/12/08 02:03:40;;;;;;;0.70;0.70;;;3.10;99.90;;;;;;4998754;28;20621;-80
2022/12/08 02:06:07;;;;;;;0.70;0.70;;;3.10;99.90;;;;;;4997616;28;20493;-81
2022/12/08 02:08:34;;;;;;;0.70;0.70;;;3.20;99.90;;;;;;5003827;28;20052;-82
2022/12/08 02:11:00;;;;;;;0.60;0.60;;;3.30;99.90;;;;;;4993911;28;20080;-81
2022/12/08 02:13:27;;;;;;;0.60;0.60;;;3.20;99.90;;;;;;4963538;28;20055;-82
2022/12/08 02:16:16;;;;;;;0.70;0.70;;;3.20;99.90;;;;;;4984686;28;20062;-82
2022/12/08 02:19:05;;;;;;;0.63;0.63;;;3.20;99.90;;;;;;4993995;28;20054;-83
2022/12/08 02:21:46;;;;;;;0.75;0.75;;;3.40;99.90;;;;;;5001023;28;20196;-83
2022/12/08 02:24:30;;;;;;;0.70;0.70;;;3.40;99.90;;;;;;4983657;28;20117;-83
2022/12/08 02:27:34;;;;;;;0.60;0.60;;;3.30;99.90;;;;;;4998978;28;20044;-82
2022/12/08 02:30:02;;;;;;;0.70;0.70;;;3.40;99.90;;;;;;4991647;28;20060;-82
2022/12/08 02:32:28;;;;;;;0.70;0.70;;;3.30;99.90;;;;;;4995284;28;20515;-82
2022/12/08 02:35:04;;;;;;;0.70;0.70;;;3.40;99.90;;;;;;4998507;27;20840;-82
2022/12/08 02:37:55;;;;;;;0.70;0.70;;;3.50;99.90;;;;;;5018714;27;20055;-81
2022/12/08 02:40:26;;;;;;;0.70;0.70;;;3.40;99.90;;;;;;5017309;27;20051;-82
2022/12/08 02:43:07;;;;;;;0.70;0.70;;;3.60;99.90;;;;;;5023531;27;20055;-83
2022/12/08 02:45:40;;;;;;;0.60;0.60;;;3.50;99.90;;;;;;5040700;27;20069;-83
2022/12/08 02:48:09;;;;;;;0.70;0.70;;;3.70;99.90;;;;;;5019479;27;20975;-83
2022/12/08 02:50:36;;;;;;;0.60;0.60;;;3.60;99.90;;;;;;5020759;27;20057;-82
2022/12/08 02:53:02;;;;;;;0.60;0.60;;;3.60;99.90;;;;;;5040155;27;20104;-81
2022/12/08 02:55:50;;;;;;;0.70;0.70;;;3.70;99.90;;;;;;5022605;27;20057;-81
2022/12/08 02:58:35;;;;;;;0.70;0.70;;;3.60;99.90;;;;;;5022019;27;20107;-81
2022/12/08 03:01:37;;;;;;;0.70;0.70;;;3.70;99.90;;;;;;5007800;27;20135;-81
2022/12/08 03:04:06;;;;;;;0.60;0.60;;;3.80;99.90;;;;;;5039435;27;20048;-81
2022/12/08 03:06:38;;;;;;;0.70;0.70;;;3.60;99.90;;;;;;5020069;27;20182;-80
2022/12/08 03:09:20;;;;;;;0.70;0.70;;;3.70;99.90;;;;;;5025911;27;20058;-81
2022/12/08 03:11:55;;;;;;;0.70;0.70;;;3.80;99.90;;;;;;5030783;27;20528;-80
2022/12/08 03:14:21;;;;;;;0.60;0.60;;;3.60;99.90;;;;;;5024434;27;20474;-81
2022/12/08 03:16:52;;;;;;;0.70;0.70;;;3.70;99.90;;;;;;5022372;27;20956;-82
2022/12/08 03:19:22;;;;;;;0.60;0.60;;;3.80;99.90;;;;;;5010943;27;20065;-81
2022/12/08 03:22:01;;;;;;;0.70;0.70;;;3.80;99.90;;;;;;5037451;27;20051;-80
2022/12/08 03:24:29;;;;;;;0.65;0.65;;;3.80;99.90;;;;;;5019277;27;20047;-81
2022/12/08 03:27:03;;;;;;;0.80;0.80;;;3.70;99.90;;;;;;5019662;27;20058;-82
2022/12/08 03:29:31;;;;;;;0.70;0.70;;;3.80;99.90;;;;;;5016307;27;20050;-83
2022/12/08 03:32:07;;;;;;;0.70;0.70;;;3.80;99.90;;;;;;5002440;27;20848;-82
2022/12/08 03:34:35;;;;;;;0.70;0.70;;;3.80;99.90;;;;;;5018695;27;20043;-80
2022/12/08 03:37:01;;;;;;;0.70;0.70;;;3.80;99.90;;;;;;5018168;28;20476;-82
2022/12/08 03:39:27;;;;;;;0.70;0.70;;;3.70;99.90;;;;;;5008575;28;20043;-82
2022/12/08 03:41:53;;;;;;;0.77;0.77;;;3.70;99.90;;;;;;5000637;28;20043;-81
2022/12/08 03:44:19;;;;;;;0.70;0.70;;;3.60;99.90;;;;;;5017548;28;20557;-81
2022/12/08 03:46:44;;;;;;;0.70;0.70;;;3.60;99.90;;;;;;4989990;28;20055;-82
2022/12/08 03:49:11;;;;;;;0.65;0.65;;;3.70;99.90;;;;;;5020044;28;20399;-81
2022/12/08 03:51:37;;;;;;;0.70;0.70;;;3.70;99.90;;;;;;5013764;28;20277;-81
2022/12/08 03:54:03;;;;;;;0.70;0.70;;;3.70;99.90;;;;;;5014006;28;20833;-81
2022/12/08 03:56:32;;;;;;;0.60;0.60;;;3.80;99.90;;;;;;5019230;28;20058;-81
2022/12/08 03:58:58;;;;;;;0.65;0.65;;;3.70;99.90;;;;;;5016583;28;20070;-81
2022/12/08 04:01:24;;;;;;;0.70;0.70;;;3.60;99.90;;;;;;5017729;28;20362;-80
2022/12/08 04:03:50;;;;;;;0.70;0.70;;;3.70;99.90;;;;;;5016599;28;20855;-81
2022/12/08 04:06:17;;;;;;;0.65;0.65;;;3.70;99.90;;;;;;5020742;28;20044;-81
2022/12/08 04:08:43;;;;;;;0.70;0.70;;;3.70;99.90;;;;;;5021679;28;20429;-81
2022/12/08 04:11:09;;;;;;;0.60;0.60;;;3.80;99.90;;;;;;5014013;28;20641;-82
2022/12/08 04:13:36;;;;;;;0.63;0.63;;;3.80;99.90;;;;;;5019301;28;20920;-81
2022/12/08 04:16:03;;;;;;;0.70;0.70;;;3.90;99.90;;;;;;5014059;28;20546;-81
2022/12/08 04:18:30;;;;;;;0.60;0.60;;;3.90;99.90;;;;;;5016666;28;20060;-82
2022/12/08 04:20:55;;;;;;;0.60;0.60;;;3.80;99.90;;;;;;5013703;28;20109;-82
2022/12/08 04:23:21;;;;;;;0.70;0.70;;;3.90;99.90;;;;;;4986416;28;20928;-83
2022/12/08 04:25:50;;;;;;;0.60;0.60;;;3.90;99.90;;;;;;5012021;27;20102;-81
2022/12/08 04:28:16;;;;;;;0.60;0.60;;;3.80;99.90;;;;;;5009898;28;20848;-81
2022/12/08 04:30:42;;;;;;;0.60;0.60;;;4.00;99.90;;;;;;5013790;28;20101;-82
2022/12/08 04:33:07;;;;;;;0.60;0.60;;;4.10;99.90;;;;;;5017508;28;20047;-80
2022/12/08 04:35:33;;;;;;;0.70;0.70;;;3.90;99.90;;;;;;5014742;28;20055;-81
2022/12/08 04:38:00;;;;;;;0.60;0.60;;;4.10;99.90;;;;;;5015958;28;20535;-81
2022/12/08 04:40:25;;;;;;;0.70;0.70;;;4.00;99.90;;;;;;5019703;28;20047;-81
2022/12/08 04:42:51;;;;;;;0.70;0.70;;;4.00;99.90;;;;;;4996039;28;20104;-81
2022/12/08 04:45:17;;;;;;;0.70;0.70;;;4.10;99.90;;;;;;5020220;28;20105;-81
2022/12/08 04:47:43;;;;;;;0.70;0.70;;;4.10;99.90;;;;;;5019924;28;20060;-81
2022/12/08 04:50:09;;;;;;;0.70;0.70;;;4.00;99.90;;;;;;5015448;28;20047;-82
2022/12/08 04:52:35;;;;;;;0.70;0.70;;;3.90;99.90;;;;;;5013643;28;20046;-81
2022/12/08 04:55:02;;;;;;;0.60;0.60;;;3.90;99.90;;;;;;5015328;28;20154;-82
2022/12/08 04:57:28;;;;;;;0.60;0.60;;;3.90;99.90;;;;;;5015135;28;20078;-82
2022/12/08 04:59:54;;;;;;;0.70;0.70;;;3.90;99.90;;;;;;5000923;28;20055;-81
2022/12/08 05:02:20;;;;;;;0.60;0.60;;;4.00;99.90;;;;;;5021357;28;20466;-82
2022/12/08 05:04:45;;;;;;;0.60;0.60;;;4.00;99.90;;;;;;5024066;28;20395;-82
2022/12/08 05:07:11;;;;;;;0.70;0.70;;;4.00;99.90;;;;;;5021705;28;20558;-83
2022/12/08 05:09:37;;;;;;;0.60;0.60;;;4.10;99.90;;;;;;5018389;28;20125;-81
2022/12/08 05:12:03;;;;;;;0.60;0.60;;;4.00;99.90;;;;;;5012395;28;20046;-81
2022/12/08 05:14:29;;;;;;;0.70;0.70;;;4.10;99.90;;;;;;5013466;28;20086;-81
2022/12/08 05:16:55;;;;;;;0.73;0.73;;;4.00;99.90;;;;;;5013095;28;20581;-82
2022/12/08 05:19:20;;;;;;;0.70;0.70;;;4.00;99.90;;;;;;5013321;28;20303;-82
2022/12/08 05:21:46;;;;;;;0.60;0.60;;;4.00;99.90;;;;;;4986808;28;20761;-82
2022/12/08 05:24:12;;;;;;;0.70;0.70;;;4.10;99.90;;;;;;5009247;28;20187;-81
2022/12/08 05:26:38;;;;;;;0.70;0.70;;;4.10;99.90;;;;;;5014184;28;20511;-81
2022/12/08 05:29:04;;;;;;;0.70;0.70;;;4.10;99.90;;;;;;5013664;28;20043;-81
2022/12/08 05:31:30;;;;;;;0.70;0.70;;;4.10;99.90;;;;;;5011062;28;20551;-81
2022/12/08 05:33:56;;;;;;;0.70;0.70;;;4.00;99.90;;;;;;5008397;28;20048;-81
2022/12/08 05:36:22;;;;;;;0.70;0.70;;;4.10;99.90;;;;;;5016827;28;20510;-82
2022/12/08 05:38:48;;;;;;;0.70;0.70;;;4.00;99.90;;;;;;5002222;28;20055;-82
2022/12/08 05:41:16;;;;;;;0.70;0.70;;;4.10;99.90;;;;;;5018745;28;20042;-82
2022/12/08 05:43:42;;;;;;;0.70;0.70;;;4.00;99.90;;;;;;5021077;28;20375;-81
2022/12/08 05:46:08;;;;;;;0.70;0.70;;;4.10;99.90;;;;;;5024754;27;20047;-83
2022/12/08 05:48:34;;;;;;;0.70;0.70;;;4.10;99.90;;;;;;4998983;28;20044;-83
2022/12/08 05:51:00;;;;;;;0.70;0.70;;;4.10;99.90;;;;;;5015180;28;20538;-82
2022/12/08 05:53:26;;;;;;;0.70;0.70;;;4.20;99.90;;;;;;5018809;27;20444;-82
2022/12/08 05:55:52;;;;;;;0.70;0.70;;;4.10;99.90;;;;;;5012504;27;20143;-82
2022/12/08 05:58:21;;;;;;;0.68;0.68;;;4.00;99.90;;;;;;4994165;28;20043;-82
2022/12/08 06:00:48;;;;;;;0.70;0.70;;;4.10;99.90;;;;;;5014616;28;20429;-82
2022/12/08 06:03:16;;;;;;;0.70;0.70;;;4.00;99.90;;;;;;5009326;28;20520;-81
2022/12/08 06:05:43;;;;;;;0.70;0.70;;;4.10;99.90;;;;;;5012172;28;20051;-81
2022/12/08 06:08:10;;;;;;;0.70;0.70;;;4.00;99.90;;;;;;4997904;28;20043;-81
2022/12/08 06:10:43;;;;;;;0.70;0.70;;;3.90;99.90;;;;;;5001085;28;20067;-81
2022/12/08 06:13:09;;;;;;;;;;;4.00;99.90;;;;;;5020119;28;21010;-82
2022/12/08 06:15:37;;;;;;;0.70;0.70;;;4.00;99.90;;;;;;4993971;28;19966;-81
2022/12/08 06:18:04;;;;;;;0.70;0.70;;;3.90;99.90;;;;;;5005819;28;21200;-82
2022/12/08 06:20:30;;;;;;;0.70;0.70;;;4.10;99.90;;;;;;5064031;27;20052;-81
2022/12/08 06:22:56;;;;;;;0.70;0.70;;;3.90;99.90;;;;;;5014075;28;20490;-81
2022/12/08 06:25:22;;;;;;;0.70;0.70;;;3.90;99.90;;;;;;5011985;28;20458;-81
2022/12/08 06:27:48;;;;;;;0.70;0.70;;;4.00;99.90;;;;;;5012183;28;20055;-81
2022/12/08 06:30:15;;;;;;;0.70;0.70;;;4.00;99.90;;;;;;5001228;28;20548;-81
2022/12/08 06:32:41;;;;;;;0.70;0.70;;;3.90;99.90;;;;;;4981168;28;20044;-81
2022/12/08 06:35:07;;;;;;;0.60;0.60;;;3.90;99.90;;;;;;5019165;27;20090;-81
2022/12/08 06:37:33;;;;;;;0.70;0.70;;;3.90;99.90;;;;;;5020113;27;20085;-81
2022/12/08 06:39:59;;;;;;;0.70;0.70;;;3.80;99.90;;;;;;5016705;27;20047;-81
2022/12/08 06:42:43;;;;;;;0.60;0.60;;;3.90;99.90;;;;;;5017663;27;20489;-81
2022/12/08 06:45:09;;;;;;;;;;;3.80;99.90;;;;;;5016761;27;20047;-81
2022/12/08 06:47:35;;;;;;;0.73;0.73;;;3.90;99.90;;;;;;4998176;27;20290;-81
2022/12/08 06:50:01;;;;;;;0.70;0.70;;;3.90;99.90;;;;;;5016068;27;20073;-81
2022/12/08 06:52:27;;;;;;;0.60;0.60;;;3.90;99.90;;;;;;5014143;27;20040;-81
2022/12/08 06:54:52;;;;;;;0.70;0.70;;;3.90;99.90;;;;;;5033024;27;20997;-81
2022/12/08 06:57:18;;;;;;;0.70;0.70;;;4.00;99.90;;;;;;5015326;27;20061;-81
2022/12/08 06:59:44;;;;;;;0.70;0.70;;;4.00;99.90;;;;;;5016469;27;20492;-81
2022/12/08 07:02:10;;;;;;;0.80;0.80;;;3.90;99.90;;;;;;5023398;27;20949;-81
2022/12/08 07:04:36;;;;;;;0.68;0.68;;;3.80;99.90;;;;;;4998902;27;20479;-80
2022/12/08 07:07:02;;;;;;;0.70;0.70;;;3.90;99.90;;;;;;5012775;27;20082;-79
2022/12/08 07:09:28;;;;;;;0.70;0.70;;;3.90;99.90;;;;;;5031184;27;20526;-81
2022/12/08 07:11:53;;;;;;;0.70;0.70;;;3.90;99.90;;;;;;5014626;27;20608;-81
2022/12/08 07:14:23;;;;;;;0.70;0.70;;;3.70;99.90;;;;;;4997999;27;20043;-80
2022/12/08 07:16:50;;;;;;;0.70;0.70;;;3.70;99.90;;;;;;5016819;27;20126;-81
2022/12/08 07:19:16;;;;;;;0.70;0.70;;;3.80;99.90;;;;;;5011949;27;20043;-80
2022/12/08 07:21:42;;;;;;;0.60;0.60;;;3.70;99.90;;;;;;5013428;27;20043;-80
2022/12/08 07:24:08;;;;;;;0.70;0.70;;;3.80;99.90;;;;;;5017358;27;20095;-80
2022/12/08 07:26:34;;;;;;;0.70;0.70;;;3.70;99.90;;;;;;5009786;27;20540;-80
2022/12/08 07:29:00;;;;;;;0.80;0.80;;;3.70;99.90;;;;;;5033522;27;20745;-80
2022/12/08 07:31:27;;;;;;;0.60;0.60;;;3.70;99.90;;;;;;5013710;27;20083;-80
2022/12/08 07:33:54;;;;;;;0.70;0.70;;;3.60;99.90;;;;;;5034598;27;20047;-81
2022/12/08 07:36:21;;;;;;;0.70;0.70;;;3.60;99.90;;;;;;5011858;28;20059;-80
2022/12/08 07:38:48;;;;;;;0.70;0.70;;;3.40;99.90;;;;;;5009798;28;20132;-80
2022/12/08 07:41:14;;;;;;;0.80;0.80;;;3.50;99.90;;;;;;5012593;28;20050;-81
2022/12/08 07:43:41;;;;;;;0.70;0.70;;;3.60;99.90;;;;;;5012836;27;20627;-81
2022/12/08 07:46:10;;;;;;;0.70;0.70;;;3.60;99.90;;;;;;5010288;28;20270;-81
2022/12/08 07:48:35;;;;;;;0.70;0.70;;;3.60;99.90;;;;;;5016756;28;20409;-81
2022/12/08 07:51:03;;;;;;;0.70;0.70;;;3.60;99.90;;;;;;5012655;28;20438;-81
2022/12/08 07:53:29;;;;;;;0.70;0.70;;;3.70;99.90;;;;;;5023416;28;20547;-81
2022/12/08 07:55:55;;;;;;;0.70;0.70;;;3.80;99.90;;;;;;5006562;28;20493;-83
2022/12/08 07:58:21;;;;;;;0.65;0.65;;;3.70;99.90;;;;;;5018021;28;20055;-83
2022/12/08 08:00:47;;;;;;;0.60;0.60;;;3.80;99.90;;;;;;5002541;28;20044;-81
2022/12/08 08:03:13;;;;;;;0.60;0.60;;;3.80;99.90;;;;;;5021142;28;20050;-81
2022/12/08 08:05:39;;;;;;;0.70;0.70;;;3.80;99.90;;;;;;5013430;28;20081;-80
2022/12/08 08:08:05;;;;;;;0.70;0.70;;;3.90;99.90;;;;;;5007611;28;20051;-81
2022/12/08 08:10:31;;;;;;;0.60;0.60;;;3.90;99.90;;;;;;4996966;28;20048;-80
2022/12/08 08:12:59;;;;;;;0.70;0.70;;;3.90;99.90;;;;;;5011611;28;20075;-80
2022/12/08 08:15:26;;;;;;;0.60;0.60;;;3.90;99.90;;;;;;5010660;28;20166;-80
2022/12/08 08:17:52;;;;;;;0.63;0.63;;;4.00;99.90;;;;;;5013969;28;20137;-80
2022/12/08 08:20:19;;;;;;;0.70;0.70;;;4.00;99.90;;;;;;5011171;28;20442;-81
2022/12/08 08:22:50;;;;;;;0.70;0.70;;;4.00;99.90;;;;;;5013571;28;20137;-82
2022/12/08 08:25:18;;;;;;;0.70;0.70;;;3.90;99.90;;;;;;4992820;28;20811;-81
2022/12/08 08:27:44;;;;;;;0.60;0.60;;;3.90;99.90;;;;;;5021438;28;20047;-82
2022/12/08 08:30:11;;;;;;;0.70;0.70;;;3.90;99.90;;;;;;5010952;27;20051;-83
2022/12/08 08:32:37;;;;;;;0.60;0.60;;;3.90;99.90;;;;;;5019391;28;20055;-82
2022/12/08 08:35:04;;;;;;;0.70;0.70;;;3.90;99.90;;;;;;5023260;28;20063;-82
2022/12/08 08:37:30;;;;;;;0.70;0.70;;;3.70;99.90;;;;;;5016902;28;20082;-82
2022/12/08 08:39:55;;;;;;;0.70;0.70;;;3.90;99.90;;;;;;5022441;28;20060;-81
2022/12/08 08:42:22;;;;;;;0.70;0.70;;;3.80;99.90;;;;;;5005379;28;20521;-81
2022/12/08 08:44:47;;;;;;;0.60;0.60;;;3.90;99.90;;;;;;4999682;28;20047;-81
2022/12/08 08:47:14;;;;;;;0.70;0.70;;;3.70;99.90;;;;;;5021852;28;20057;-81
2022/12/08 08:49:40;;;;;;;0.60;0.60;;;3.70;99.90;;;;;;5001483;28;20043;-81
2022/12/08 08:52:06;;;;;;;0.70;0.70;;;3.70;99.90;;;;;;5011951;28;20039;-83
2022/12/08 08:54:32;;;;;;;0.70;0.70;;;3.80;99.90;;;;;;4994123;28;20517;-81
2022/12/08 08:56:59;;;;;;;0.70;0.70;;;3.80;99.90;;;;;;5012532;28;20151;-81
2022/12/08 08:59:25;;;;;;;0.68;0.68;;;3.80;99.90;;;;;;5006730;28;20031;-80
2022/12/08 09:01:52;;;;;;;0.70;0.70;;;3.70;99.90;;;;;;5010885;28;20987;-80
2022/12/08 09:04:18;;;;;;;0.70;0.70;;;3.80;99.90;;;;;;5009478;28;20122;-81
2022/12/08 09:06:44;;;;;;;0.70;0.70;;;3.90;99.90;;;;;;5015371;28;20055;-81
2022/12/08 09:09:11;;;;;;;0.70;0.70;;;3.90;99.90;;;;;;5009569;28;20078;-80
2022/12/08 09:11:37;;;;;;;0.70;0.70;;;3.90;99.90;;;;;;4994575;28;20431;-81
2022/12/08 09:14:03;;;;;;;0.70;0.70;;;3.90;99.90;;;;;;5012542;28;20048;-80
2022/12/08 09:16:29;;;;;;;0.65;0.65;;;3.90;99.90;;;;;;5016401;28;20565;-82
2022/12/08 09:18:55;;;;;;;0.70;0.70;;;4.00;99.90;;;;;;5019228;28;20180;-80
2022/12/08 09:21:24;;;;;;;0.70;0.70;;;4.00;99.90;;;;;;5020670;28;20131;-81
2022/12/08 09:23:53;;;;;;;0.70;0.70;;;4.00;99.90;;;;;;5034182;27;20050;-81
2022/12/08 09:26:21;;;;;;;0.70;0.70;;;4.00;99.90;;;;;;5025251;28;20118;-81
2022/12/08 09:28:51;;;;;;;0.70;0.70;;;4.00;99.90;;;;;;5021875;28;20044;-80
2022/12/08 09:31:18;;;;;;;0.70;0.70;;;4.00;99.90;;;;;;5018100;28;20557;-81
2022/12/08 09:33:43;;;;;;;0.60;0.60;;;4.00;99.90;;;;;;5017618;28;20063;-82
2022/12/08 09:36:10;;;;;;;0.80;0.80;;;4.00;99.90;;;;;;5015890;28;20059;-83
2022/12/08 09:38:37;;;;;;;0.70;0.70;;;4.20;99.90;;;;;;5012060;28;20164;-80
2022/12/08 09:41:10;;;;;;;0.73;0.73;;;4.20;99.90;;;;;;5020407;28;20039;-80
2022/12/08 09:44:13;;;;;;;0.70;0.70;;;4.20;99.90;;;;;;5017114;28;20051;-79
2022/12/08 09:46:39;;;;;;;0.70;0.70;;;4.10;99.90;;;;;;5013382;28;20082;-81
2022/12/08 09:49:12;;;;;;;0.65;0.65;;;4.20;99.90;;;;;;5023178;28;20435;-79
2022/12/08 09:51:40;;;;;;;;;;;4.20;99.90;;;;;;5018010;28;20064;-80
2022/12/08 09:54:12;;;;;;;0.70;0.70;;;4.10;99.90;;;;;;5018951;28;19923;-80
2022/12/08 09:56:38;;;;;;;0.70;0.70;;;4.20;99.90;;;;;;5019228;28;21114;-81
2022/12/08 09:59:07;;;;;;;0.70;0.70;;;4.20;99.90;;;;;;5016732;28;20451;-80
2022/12/08 10:01:40;;;;;;;0.70;0.70;;;4.20;99.90;;;;;;5019808;28;20467;-82
2022/12/08 10:04:35;;;;;;;0.70;0.70;;;4.20;99.90;;;;;;5018827;28;20073;-81
2022/12/08 10:07:25;;;;;;;0.70;0.70;;;4.20;99.90;;;;;;5013383;28;20039;-80
2022/12/08 10:10:12;;;;;;;0.70;0.70;;;4.30;99.90;;;;;;5013210;28;20063;-81
2022/12/08 10:13:12;;;;;;;0.70;0.70;;;4.30;99.90;;;;;;5019928;28;20398;-81
2022/12/08 10:15:40;;;;;;;0.63;0.63;;;4.30;99.90;;;;;;5017251;28;20265;-82
2022/12/08 10:18:22;;;;;;;0.70;0.70;;;4.40;99.90;;;;;;5017514;28;20051;-82
2022/12/08 10:20:49;;;;;;;0.60;0.60;;;4.50;99.90;;;;;;5018203;28;20119;-83
2022/12/08 10:23:28;;;;;;;0.70;0.70;;;4.50;99.90;;;;;;5016321;28;20047;-84
2022/12/08 10:26:12;;;;;;;0.60;0.60;;;4.60;99.90;;;;;;5019283;28;20055;-81
2022/12/08 10:28:38;;;;;;;0.70;0.70;;;4.50;99.90;;;;;;5014272;28;20565;-82
2022/12/08 10:31:04;;;;;;;0.70;0.70;;;4.60;99.90;;;;;;4988376;28;20055;-81
2022/12/08 10:33:31;;;;;;;0.70;0.70;;;4.60;99.90;;;;;;5021378;28;20055;-82
2022/12/08 10:36:01;;;;;;;0.70;0.70;;;4.50;99.90;;;;;;5015687;28;20083;-82
2022/12/08 10:38:33;;;;;;;0.70;0.70;;;4.60;99.90;;;;;;4999817;28;20409;-82
2022/12/08 10:41:16;;;;;;;0.70;0.70;;;4.60;99.90;;;;;;4994499;28;20363;-82
2022/12/08 10:43:51;;;;;;;0.70;0.70;;;4.60;99.90;;;;;;5002915;28;20409;-82
2022/12/08 10:46:21;;;;;;;0.70;0.70;;;4.70;99.90;;;;;;5002331;28;20559;-83
2022/12/08 10:49:07;;;;;;;0.70;0.70;;;4.60;99.90;;;;;;4988672;28;20485;-81
2022/12/08 10:51:33;;;;;;;0.70;0.70;;;4.50;99.90;;;;;;4988918;28;20600;-82
2022/12/08 10:53:59;;;;;;;0.70;0.70;;;4.50;99.90;;;;;;5000971;28;20052;-82
2022/12/08 10:56:27;;;;;;;0.60;0.60;;;4.50;99.90;;;;;;5003296;28;20048;-84
2022/12/08 10:59:11;;;;;;;0.70;0.70;;;4.50;99.90;;;;;;4980903;28;20075;-82
2022/12/08 11:01:38;;;;;;;;;;;4.60;99.90;;;;;;4983173;28;20043;-82
2022/12/08 11:04:35;;;;;;;0.70;0.70;;;4.50;99.90;;;;;;4983179;28;19954;-81
2022/12/08 11:07:03;;;;;;;0.70;0.70;;;4.60;99.90;;;;;;5007332;28;20182;-81
2022/12/08 11:09:51;;;;;;;0.70;0.70;;;4.60;99.90;;;;;;4998363;28;20048;-82
2022/12/08 11:12:20;;;;;;;0.70;0.70;;;4.70;99.90;;;;;;4980754;28;20804;-82
2022/12/08 11:14:50;;;;;;;0.70;0.70;;;4.60;99.90;;;;;;4981894;28;20127;-83
2022/12/08 11:17:25;;;;;;;0.70;0.70;;;4.70;99.90;;;;;;4994488;28;20486;-83
2022/12/08 11:20:18;;;;;;;0.70;0.70;;;4.80;99.90;;;;;;4996031;28;20051;-81
2022/12/08 11:22:49;;;;;;;0.70;0.70;;;4.80;99.90;;;;;;4995035;28;20079;-82
2022/12/08 11:25:26;;;;;;;0.70;0.70;;;4.80;99.90;;;;;;4997000;28;20044;-82
2022/12/08 11:27:57;;;;;;;0.70;0.70;;;4.80;99.90;;;;;;4995273;28;20433;-83
2022/12/08 11:30:42;;;;;;;0.70;0.70;;;4.80;99.90;;;;;;4974448;28;20082;-82
2022/12/08 11:33:24;;;;;;;0.70;0.70;;;4.80;99.90;;;;;;4978393;28;20113;-82
2022/12/08 11:36:04;;;;;;;0.80;0.80;;;4.80;99.90;;;;;;4999890;28;20444;-83
2022/12/08 11:38:32;;;;;;;0.60;0.60;;;4.80;99.90;;;;;;5019059;28;20465;-83
2022/12/08 11:41:15;;;;;;;0.70;0.70;;;4.80;99.90;;;;;;5018837;28;20549;-83
2022/12/08 11:44:22;;;;;;;0.70;0.70;;;4.70;99.90;;;;;;5000592;28;20052;-82
2022/12/08 11:46:55;;;;;;;0.70;0.70;;;4.80;99.90;;;;;;5001326;28;20070;-82
2022/12/08 11:49:36;;;;;;;0.70;0.70;;;4.70;99.90;;;;;;5012812;28;20494;-82
2022/12/08 11:52:16;;;;;;;0.70;0.70;;;4.70;99.90;;;;;;5013906;28;20816;-83
2022/12/08 11:55:00;;;;;;;0.70;0.70;;;4.60;99.90;;;;;;5015576;28;21037;-82
2022/12/08 11:57:26;;;;;;;;;;;4.60;99.90;;;;;;5016286;28;20466;-82
2022/12/08 11:59:55;;;;;;;0.70;0.70;;;4.60;99.90;;;;;;5014029;28;19984;-82
2022/12/08 12:02:24;;;;;;;0.80;0.80;;;4.60;99.90;;;;;;5015783;28;20100;-82
2022/12/08 12:08:48;;;;;;;0.70;0.70;;;4.60;99.90;;;;;;5013198;28;20428;-83
2022/12/08 12:14:57;;;;;;;0.60;0.60;;;4.50;99.90;;;;;;5017033;28;20410;-83
2022/12/08 12:17:25;;;;;;;0.70;0.70;;;4.40;99.90;;;;;;5016182;28;20048;-83
2022/12/08 12:19:54;;;;;;;0.70;0.70;;;4.30;99.90;;;;;;5013722;28;20040;-82
2022/12/08 12:22:22;;;;;;;0.70;0.70;;;4.30;99.90;;;;;;5001035;28;20094;-82
2022/12/08 12:24:50;;;;;;;0.70;0.70;;;4.20;99.90;;;;;;5015401;28;20640;-82
2022/12/08 12:27:31;;;;;;;0.68;0.68;;;4.20;99.90;;;;;;4992550;28;20043;-82
2022/12/08 12:30:01;;;;;;;0.60;0.60;;;4.10;99.90;;;;;;4995447;28;20083;-83
2022/12/08 12:32:40;;;;;;;0.70;0.70;;;4.20;99.90;;;;;;5018816;28;20512;-82
2022/12/08 12:35:33;;;;;;;0.70;0.70;;;4.10;99.90;;;;;;5020968;28;20059;-82
2022/12/08 12:41:13;;;;;;;0.70;0.70;;;4.10;99.90;;;;;;5009445;28;20056;-81
2022/12/08 12:43:39;;;;;;;0.70;0.70;;;4.10;99.90;;;;;;5011393;28;20413;-81
2022/12/08 12:46:23;;;;;;;0.70;0.70;;;4.00;99.90;;;;;;5015977;28;20350;-81
2022/12/08 12:48:50;;;;;;;0.70;0.70;;;4.00;99.90;;;;;;5022128;28;20107;-82
2022/12/08 12:51:46;;;;;;;0.70;0.70;;;3.90;99.90;;;;;;4998747;28;20039;-81
2022/12/08 12:54:41;;;;;;;0.70;0.70;;;4.00;99.90;;;;;;5012310;27;20842;-82
2022/12/08 12:57:20;;;;;;;0.60;0.60;;;3.90;99.90;;;;;;5013240;28;20066;-81
2022/12/08 12:59:52;;;;;;;0.70;0.70;;;4.10;99.90;;;;;;5015511;28;20066;-80
2022/12/08 13:02:27;;;;;;;0.70;0.70;;;4.50;99.90;;;;;;5015995;28;20043;-84
2022/12/08 13:05:08;;;;;;;0.77;0.77;;;4.90;99.90;;;;;;5015723;28;20092;-81
2022/12/08 13:08:18;;;;;;;0.70;0.70;;;5.10;99.90;;;;;;5017819;28;20939;-81
2022/12/08 13:11:00;;;;;;;0.70;0.70;;;5.30;99.90;;;;;;5017689;28;20817;-83
2022/12/08 13:13:27;;;;;;;0.60;0.60;;;5.40;99.90;;;;;;5010924;28;20040;-79
2022/12/08 13:15:54;;;;;;;0.70;0.70;;;5.50;99.90;;;;;;5014162;28;20062;-82
2022/12/08 13:18:25;;;;;;;0.70;0.70;;;5.60;99.90;;;;;;5013554;28;20051;-82
2022/12/08 13:21:08;;;;;;;0.68;0.68;;;5.70;99.90;;;;;;4997020;28;20052;-81
2022/12/08 13:23:36;;;;;;;0.70;0.70;;;5.70;99.90;;;;;;5015321;28;20070;-81
2022/12/08 13:26:16;;;;;;;0.70;0.70;;;5.70;99.90;;;;;;5015476;28;20055;-81
2022/12/08 13:28:57;;;;;;;0.60;0.60;;;5.70;99.90;;;;;;4998592;28;20056;-82
2022/12/08 13:31:39;;;;;;;0.70;0.70;;;5.60;99.90;;;;;;5015704;28;20835;-81